createdAt,value
2022-12-16T00:02:21.788Z,25.23
2022-12-16T00:05:29.815Z,25.60
2022-12-16T00:08:43.418Z,24.05
2022-12-16T00:11:50.482Z,26.02
2022-12-16T00:15:02.710Z,24.33
2022-12-16T00:18:09.927Z,26.58
2022-12-16T00:21:28.561Z,23.88
2022-12-16T00:24:40.026Z,23.83
2022-12-16T00:27:58.810Z,23.77
2022-12-16T00:31:16.093Z,24.60
2022-12-16T00:34:24.581Z,26.08
2022-12-16T00:37:57.775Z,25.23
2022-12-16T00:41:12.360Z,24.20
2022-12-16T00:44:22.989Z,24.23
2022-12-16T00:47:31.635Z,22.45
2022-12-16T00:50:45.883Z,26.13
2022-12-16T00:53:57.253Z,23.25
2022-12-16T00:57:11.589Z,24.05
2022-12-16T01:00:20.056Z,23.52
2022-12-16T01:03:42.190Z,24.38
2022-12-16T01:07:01.821Z,24.42
2022-12-16T01:16:44.727Z,24.40
2022-12-16T01:20:07.456Z,23.42
2022-12-16T01:23:20.201Z,24.40
2022-12-16T01:26:29.529Z,24.88
2022-12-16T01:29:39.093Z,25.60
2022-12-16T01:32:50.620Z,24.05
2022-12-16T01:36:14.089Z,23.23
2022-12-16T01:39:31.135Z,23.45
2022-12-16T01:42:42.628Z,23.40
2022-12-16T01:49:04.078Z,22.23
2022-12-16T01:52:30.541Z,22.88
2022-12-16T01:55:50.577Z,23.10
2022-12-16T01:58:58.518Z,22.95
2022-12-16T02:02:30.137Z,22.45
2022-12-16T02:05:41.340Z,22.15
2022-12-16T02:08:46.209Z,23.15
2022-12-16T02:12:18.717Z,22.83
2022-12-16T02:15:44.448Z,22.65
2022-12-16T02:19:18.733Z,23.40
2022-12-16T02:22:48.176Z,22.13
2022-12-16T02:26:21.885Z,25.02
2022-12-16T02:30:08.092Z,24.60
2022-12-16T02:33:41.621Z,22.95
2022-12-16T02:36:59.146Z,22.02
2022-12-16T02:40:12.371Z,22.00
2022-12-16T02:43:55.232Z,23.52
2022-12-16T02:47:04.655Z,22.42
2022-12-16T02:50:24.529Z,24.20
2022-12-16T02:53:36.551Z,23.60
2022-12-16T02:56:51.703Z,22.30
2022-12-16T03:00:12.269Z,20.60
2022-12-16T03:03:34.363Z,24.90
2022-12-16T03:06:52.235Z,24.00
2022-12-16T03:10:06.323Z,22.27
2022-12-16T03:13:15.635Z,21.02
2022-12-16T03:16:35.968Z,22.90
2022-12-16T03:19:46.402Z,22.70
2022-12-16T03:23:08.986Z,23.10
2022-12-16T03:26:24.222Z,23.83
2022-12-16T03:29:33.731Z,22.92
2022-12-16T03:32:44.675Z,22.65
2022-12-16T03:35:59.602Z,22.83
2022-12-16T03:39:09.895Z,23.85
2022-12-16T03:42:31.535Z,22.17
2022-12-16T03:46:03.144Z,21.20
2022-12-16T03:49:14.862Z,24.23
2022-12-16T03:52:33.122Z,24.17
2022-12-16T03:55:41.513Z,24.05
2022-12-16T03:58:53.408Z,22.98
2022-12-16T04:01:59.720Z,23.80
2022-12-16T04:05:49.725Z,22.92
2022-12-16T04:09:09.591Z,22.67
2022-12-16T04:12:36.711Z,23.30
2022-12-16T04:16:05.472Z,23.42
2022-12-16T04:19:35.147Z,24.33
2022-12-16T04:22:58.345Z,22.13
2022-12-16T04:26:16.681Z,24.23
2022-12-16T04:29:57.740Z,24.30
2022-12-16T04:33:22.237Z,24.85
2022-12-16T04:36:43.803Z,22.83
2022-12-16T04:40:01.422Z,24.60
2022-12-16T04:43:21.912Z,22.85
2022-12-16T04:46:45.343Z,23.80
2022-12-16T04:50:08.160Z,22.13
2022-12-16T04:53:31.231Z,23.58
2022-12-16T04:56:59.018Z,23.02
2022-12-16T05:00:23.729Z,22.42
2022-12-16T05:03:47.554Z,25.08
2022-12-16T05:07:04.745Z,25.40
2022-12-16T05:10:25.958Z,23.58
2022-12-16T05:13:52.683Z,24.13
2022-12-16T05:17:10.084Z,23.08
2022-12-16T05:20:34.015Z,23.05
2022-12-16T05:24:06.775Z,23.85
2022-12-16T05:27:26.158Z,24.08
2022-12-16T05:30:50.735Z,23.98
2022-12-16T05:34:08.943Z,24.27
2022-12-16T05:37:32.698Z,25.45
2022-12-16T05:40:52.694Z,24.27
2022-12-16T05:47:44.673Z,23.55
2022-12-16T05:51:06.554Z,24.17
2022-12-16T05:54:26.284Z,22.58
2022-12-16T05:57:57.171Z,24.40
2022-12-16T06:01:19.312Z,23.15
2022-12-16T06:04:45.260Z,22.73
2022-12-16T06:15:46.091Z,21.83
2022-12-16T06:19:11.217Z,22.90
2022-12-16T06:22:31.282Z,23.13
2022-12-16T06:25:57.128Z,23.15
2022-12-16T06:29:19.042Z,25.38
2022-12-16T06:32:44.991Z,25.35
2022-12-16T06:36:21.898Z,24.17
2022-12-16T06:39:43.077Z,23.77
2022-12-16T06:43:02.886Z,22.17
2022-12-16T06:46:30.231Z,21.88
2022-12-16T06:49:53.351Z,23.67
2022-12-16T06:53:11.668Z,23.17
2022-12-16T06:56:46.621Z,23.17
2022-12-16T07:00:08.477Z,22.80
2022-12-16T07:03:42.664Z,23.52
2022-12-16T07:07:12.767Z,23.88
2022-12-16T07:10:34.348Z,21.92
2022-12-16T07:13:51.795Z,23.13
2022-12-16T07:17:12.380Z,22.85
2022-12-16T07:20:40.016Z,23.80
2022-12-16T07:24:05.840Z,21.45
2022-12-16T07:27:28.085Z,21.35
2022-12-16T07:30:48.638Z,22.48
2022-12-16T07:34:07.287Z,22.50
2022-12-16T07:37:34.244Z,21.70
2022-12-16T07:40:53.807Z,23.90
2022-12-16T07:44:14.146Z,22.88
2022-12-16T07:47:36.858Z,22.88
2022-12-16T07:50:56.702Z,21.83
2022-12-16T07:54:15.704Z,22.58
2022-12-16T07:57:33.768Z,21.33
2022-12-16T08:01:01.005Z,23.17
2022-12-16T08:04:25.450Z,22.90
2022-12-16T08:07:44.388Z,23.15
2022-12-16T08:11:03.784Z,25.02
2022-12-16T08:14:27.752Z,25.42
2022-12-16T08:17:46.441Z,23.58
2022-12-16T08:21:08.800Z,23.75
2022-12-16T08:24:27.949Z,25.38
2022-12-16T08:27:48.066Z,24.27
2022-12-16T08:31:08.275Z,25.48
2022-12-16T08:34:31.998Z,24.42
2022-12-16T08:37:48.909Z,25.10
2022-12-16T08:41:11.798Z,25.70
2022-12-16T08:44:42.688Z,24.60
2022-12-16T08:48:07.225Z,25.92
2022-12-16T08:51:28.040Z,24.80
2022-12-16T08:54:45.849Z,25.50
2022-12-16T08:58:08.780Z,25.65
2022-12-16T09:01:31.180Z,26.58
2022-12-16T09:04:50.108Z,25.45
2022-12-16T09:08:14.836Z,26.33
2022-12-16T09:11:35.156Z,25.33
2022-12-16T09:15:05.492Z,26.05
2022-12-16T09:18:37.624Z,26.38
2022-12-16T09:21:57.628Z,25.77
2022-12-16T09:25:23.294Z,24.60
2022-12-16T09:28:42.155Z,24.27
2022-12-16T09:32:13.825Z,25.77
2022-12-16T09:35:35.207Z,23.60
2022-12-16T09:38:55.620Z,24.30
2022-12-16T09:42:26.226Z,26.55
2022-12-16T09:45:53.251Z,23.50
2022-12-16T09:49:24.136Z,26.23
2022-12-16T09:52:48.422Z,24.35
2022-12-16T09:56:07.939Z,24.40
2022-12-16T09:59:40.641Z,26.20
2022-12-16T10:03:07.224Z,25.15
2022-12-16T10:06:45.369Z,26.63
2022-12-16T10:10:14.731Z,24.88
2022-12-16T10:13:42.087Z,25.05
2022-12-16T10:17:06.460Z,25.13
2022-12-16T10:20:39.825Z,25.48
2022-12-16T10:24:20.139Z,27.95
2022-12-16T10:27:57.998Z,28.67
2022-12-16T10:31:19.780Z,27.88
2022-12-16T10:34:43.108Z,28.88
2022-12-16T10:38:06.972Z,28.45
2022-12-16T10:41:28.921Z,27.33
2022-12-16T10:44:56.328Z,29.55
2022-12-16T10:48:13.569Z,30.50
2022-12-16T10:51:38.242Z,32.08
2022-12-16T10:55:13.230Z,30.90
2022-12-16T10:58:38.913Z,29.25
2022-12-16T11:02:14.938Z,29.58
2022-12-16T11:06:01.850Z,28.20
2022-12-16T11:09:43.103Z,30.17
2022-12-16T11:13:06.047Z,28.70
2022-12-16T11:16:33.955Z,31.60
2022-12-16T11:20:00.548Z,30.92
2022-12-16T11:23:53.115Z,33.45
2022-12-16T11:27:42.185Z,33.00
2022-12-16T11:31:10.128Z,33.15
2022-12-16T11:34:33.291Z,33.25
2022-12-16T11:37:55.942Z,32.95
2022-12-16T11:41:17.461Z,36.45
2022-12-16T11:44:49.536Z,33.83
2022-12-16T11:48:22.150Z,33.58
2022-12-16T11:51:48.582Z,35.42
2022-12-16T11:55:13.041Z,34.33
2022-12-16T11:58:49.018Z,35.50
2022-12-16T12:02:13.151Z,35.20
2022-12-16T12:05:42.964Z,34.53
2022-12-16T12:09:15.521Z,36.58
2022-12-16T12:12:53.828Z,34.15
2022-12-16T12:16:28.617Z,34.30
2022-12-16T12:20:14.155Z,36.83
2022-12-16T12:23:57.847Z,35.03
2022-12-16T12:27:36.361Z,35.17
2022-12-16T12:31:07.650Z,35.90
2022-12-16T12:34:41.114Z,33.33
2022-12-16T12:38:14.908Z,34.08
2022-12-16T12:41:38.680Z,37.47
2022-12-16T12:45:10.740Z,36.15
2022-12-16T12:48:45.034Z,36.70
2022-12-16T12:52:11.782Z,36.05
2022-12-16T12:55:46.167Z,33.95
2022-12-16T12:59:10.592Z,33.20
2022-12-16T13:02:37.873Z,35.75
2022-12-16T13:06:00.444Z,35.38
2022-12-16T13:09:19.136Z,32.72
2022-12-16T13:12:48.382Z,35.60
2022-12-16T13:16:08.892Z,35.70
2022-12-16T13:19:59.531Z,35.63
2022-12-16T13:23:45.499Z,35.78
2022-12-16T13:27:34.074Z,32.47
2022-12-16T13:30:52.880Z,36.80
2022-12-16T13:34:20.319Z,35.10
2022-12-16T13:37:43.479Z,34.08
2022-12-16T13:41:10.214Z,36.00
2022-12-16T13:45:10.481Z,35.25
2022-12-16T13:52:30.041Z,34.90
2022-12-16T13:56:09.648Z,35.60
2022-12-16T13:59:36.082Z,35.05
2022-12-16T14:02:57.286Z,34.35
2022-12-16T14:06:34.302Z,34.53
2022-12-16T14:09:58.479Z,34.72
2022-12-16T14:13:36.071Z,32.80
2022-12-16T14:17:08.100Z,33.22
2022-12-16T14:20:35.071Z,39.22
2022-12-16T14:24:04.127Z,36.60
2022-12-16T14:27:40.566Z,39.05
2022-12-16T14:30:58.240Z,35.13
2022-12-16T14:34:33.674Z,35.28
2022-12-16T14:37:55.650Z,37.03
2022-12-16T14:41:25.187Z,37.10
2022-12-16T14:44:47.214Z,33.72
2022-12-16T14:48:31.829Z,39.42
2022-12-16T14:51:59.818Z,37.00
2022-12-16T14:55:43.397Z,40.33
2022-12-16T14:59:32.434Z,40.83
2022-12-16T15:02:56.362Z,37.65
2022-12-16T15:06:21.187Z,35.22
2022-12-16T15:09:59.955Z,36.15
2022-12-16T15:13:25.658Z,36.05
2022-12-16T15:16:51.873Z,35.53
2022-12-16T15:20:42.261Z,34.53
2022-12-16T15:24:01.491Z,35.75
2022-12-16T15:27:52.086Z,36.50
2022-12-16T15:31:16.810Z,35.70
2022-12-16T15:34:49.398Z,35.88
2022-12-16T15:38:07.251Z,36.55
2022-12-16T15:41:36.256Z,34.80
2022-12-16T15:45:04.078Z,35.97
2022-12-16T15:48:41.306Z,36.38
2022-12-16T15:52:07.530Z,35.13
2022-12-16T15:56:09.856Z,35.90
2022-12-16T16:00:10.763Z,33.92
2022-12-16T16:04:44.758Z,33.67
2022-12-16T16:08:05.503Z,34.30
2022-12-16T16:11:27.947Z,35.47
2022-12-16T16:14:59.718Z,32.90
2022-12-16T16:18:21.212Z,32.17
2022-12-16T16:21:43.679Z,31.27
2022-12-16T16:25:01.244Z,49.15
2022-12-16T16:28:32.836Z,38.53
2022-12-16T16:31:52.795Z,28.90
2022-12-16T16:35:17.706Z,29.75
2022-12-16T16:38:49.074Z,29.25
2022-12-16T16:42:23.525Z,29.50
2022-12-16T16:45:47.537Z,29.40
2022-12-16T16:49:18.994Z,30.13
2022-12-16T16:56:27.641Z,29.93
2022-12-16T16:59:59.295Z,28.95
2022-12-16T17:03:20.239Z,28.35
2022-12-16T17:06:40.562Z,29.35
2022-12-16T17:10:03.582Z,30.90
2022-12-16T17:13:32.682Z,32.38
2022-12-16T17:16:54.344Z,32.38
2022-12-16T17:20:13.470Z,29.60
2022-12-16T17:23:35.985Z,29.60
2022-12-16T17:26:58.752Z,31.38
2022-12-16T17:30:47.726Z,30.75
2022-12-16T17:34:06.084Z,28.35
2022-12-16T17:37:40.711Z,29.42
2022-12-16T17:40:59.061Z,30.27
2022-12-16T17:44:23.995Z,32.03
2022-12-16T17:47:43.123Z,32.88
2022-12-16T17:51:11.960Z,30.42
2022-12-16T17:54:48.264Z,31.70
2022-12-16T17:58:21.341Z,29.95
2022-12-16T18:01:52.031Z,26.25
2022-12-16T18:05:12.878Z,31.08
2022-12-16T18:08:33.424Z,28.70
2022-12-16T18:11:53.596Z,28.40
2022-12-16T18:15:17.508Z,27.65
2022-12-16T18:19:02.348Z,28.15
2022-12-16T18:22:24.032Z,29.88
2022-12-16T18:25:52.030Z,29.10
2022-12-16T18:29:15.514Z,30.33
2022-12-16T18:32:36.732Z,29.10
2022-12-16T18:36:04.463Z,29.55
2022-12-16T18:39:29.249Z,28.23
2022-12-16T18:43:05.006Z,29.90
2022-12-16T18:46:23.567Z,29.35
2022-12-16T18:49:47.629Z,28.88
2022-12-16T19:04:00.467Z,28.92
2022-12-16T19:07:21.367Z,26.83
2022-12-16T19:10:42.023Z,26.42
2022-12-16T19:14:07.861Z,26.95
2022-12-16T19:17:32.116Z,28.35
2022-12-16T19:20:55.314Z,27.13
2022-12-16T19:24:14.106Z,28.30
2022-12-16T19:27:36.923Z,30.55
2022-12-16T19:31:15.358Z,30.27
2022-12-16T19:34:34.967Z,31.75
2022-12-16T19:38:04.658Z,31.63
2022-12-16T19:41:34.427Z,30.33
2022-12-16T19:45:10.187Z,29.42
2022-12-16T19:48:31.617Z,30.15
2022-12-16T19:51:48.880Z,33.40
2022-12-16T19:59:06.538Z,34.50
2022-12-16T20:02:28.358Z,34.53
2022-12-16T20:05:47.645Z,34.40
2022-12-16T20:09:10.380Z,35.13
2022-12-16T20:12:38.836Z,34.70
2022-12-16T20:15:58.852Z,35.20
2022-12-16T20:19:17.359Z,35.25
2022-12-16T20:22:39.465Z,35.45
2022-12-16T20:26:23.775Z,35.28
2022-12-16T20:29:43.832Z,35.03
2022-12-16T20:33:07.386Z,34.65
2022-12-16T20:36:38.483Z,35.72
2022-12-16T20:40:01.004Z,35.38
2022-12-16T20:43:31.236Z,36.80
2022-12-16T20:46:59.455Z,35.33
2022-12-16T20:50:16.838Z,37.05
2022-12-16T20:53:43.257Z,37.90
2022-12-16T20:57:13.011Z,38.95
2022-12-16T21:00:42.655Z,38.13
2022-12-16T21:04:09.505Z,37.60
2022-12-16T21:07:40.620Z,37.95
2022-12-16T21:11:10.276Z,39.53
2022-12-16T21:14:35.636Z,41.13
2022-12-16T21:18:01.436Z,43.47
2022-12-16T21:21:23.171Z,41.33
2022-12-16T21:24:52.410Z,39.10
2022-12-16T21:28:20.524Z,40.90
2022-12-16T21:31:51.909Z,41.78
2022-12-16T21:35:11.164Z,36.30
2022-12-16T21:38:56.199Z,33.10
2022-12-16T21:42:34.694Z,32.38
2022-12-16T21:45:53.123Z,32.88
2022-12-16T21:49:35.248Z,33.35
2022-12-16T21:52:54.157Z,34.83
2022-12-16T21:56:23.658Z,25.95
2022-12-16T21:59:43.678Z,35.40
2022-12-16T22:03:04.602Z,36.20
2022-12-16T22:06:36.293Z,37.35
2022-12-16T22:10:27.847Z,36.65
2022-12-16T22:17:26.511Z,38.20
2022-12-16T22:20:49.368Z,35.45
2022-12-16T22:24:11.315Z,37.03
2022-12-16T22:30:51.444Z,34.22
2022-12-16T22:34:14.045Z,36.50
2022-12-16T22:37:45.376Z,33.63
2022-12-16T22:41:19.914Z,35.70
2022-12-16T22:48:00.495Z,35.05
2022-12-16T22:51:31.242Z,33.25
2022-12-16T22:54:51.452Z,33.53
2022-12-16T22:58:26.220Z,33.78
2022-12-16T23:01:52.068Z,36.65
2022-12-16T23:05:27.045Z,34.60
2022-12-16T23:08:47.041Z,31.58
2022-12-16T23:15:56.501Z,33.53
2022-12-16T23:19:14.082Z,33.83
2022-12-16T23:22:33.514Z,33.10
2022-12-16T23:25:53.837Z,33.50
2022-12-16T23:29:13.807Z,32.92
2022-12-16T23:32:39.835Z,32.28
2022-12-16T23:36:05.439Z,30.02
2022-12-16T23:39:32.614Z,32.53
2022-12-16T23:42:52.305Z,28.40
2022-12-16T23:46:23.196Z,31.75
2022-12-16T23:49:44.673Z,30.25
2022-12-16T23:53:10.875Z,29.85
2022-12-16T23:56:54.044Z,29.67
